sensor_id;sensor_type;location;lat;lon;timestamp;P1;durP1;ratioP1;P2;durP2;ratioP2
70535;SDS011;58089;48.752;11.338;2022-07-11T00:01:00;4.33;;;1.00;;
70535;SDS011;58089;48.752;11.338;2022-07-11T00:03:25;4.73;;;1.03;;
70535;SDS011;58089;48.752;11.338;2022-07-11T00:05:51;4.27;;;0.90;;
70535;SDS011;58089;48.752;11.338;2022-07-11T00:08:16;4.47;;;1.10;;
70535;SDS011;58089;48.752;11.338;2022-07-11T00:10:41;4.60;;;0.70;;
70535;SDS011;58089;48.752;11.338;2022-07-11T00:13:08;4.07;;;0.80;;
70535;SDS011;58089;48.752;11.338;2022-07-11T00:15:33;4.47;;;1.00;;
70535;SDS011;58089;48.752;11.338;2022-07-11T00:17:58;3.43;;;0.70;;
70535;SDS011;58089;48.752;11.338;2022-07-11T00:20:23;3.10;;;0.60;;
70535;SDS011;58089;48.752;11.338;2022-07-11T00:22:48;3.90;;;0.97;;
70535;SDS011;58089;48.752;11.338;2022-07-11T00:25:14;3.17;;;0.77;;
70535;SDS011;58089;48.752;11.338;2022-07-11T00:27:39;4.37;;;0.90;;
70535;SDS011;58089;48.752;11.338;2022-07-11T00:30:04;4.30;;;1.17;;
70535;SDS011;58089;48.752;11.338;2022-07-11T00:32:30;5.45;;;0.80;;
70535;SDS011;58089;48.752;11.338;2022-07-11T00:34:55;4.17;;;0.87;;
70535;SDS011;58089;48.752;11.338;2022-07-11T00:37:20;4.30;;;0.80;;
70535;SDS011;58089;48.752;11.338;2022-07-11T00:39:45;7.43;;;0.90;;
70535;SDS011;58089;48.752;11.338;2022-07-11T00:42:10;4.40;;;0.83;;
70535;SDS011;58089;48.752;11.338;2022-07-11T00:44:36;3.50;;;0.80;;
70535;SDS011;58089;48.752;11.338;2022-07-11T00:47:01;4.40;;;0.87;;
70535;SDS011;58089;48.752;11.338;2022-07-11T00:49:26;4.53;;;0.87;;
70535;SDS011;58089;48.752;11.338;2022-07-11T00:51:51;5.50;;;0.87;;
70535;SDS011;58089;48.752;11.338;2022-07-11T00:54:17;4.40;;;0.93;;
70535;SDS011;58089;48.752;11.338;2022-07-11T00:56:44;5.18;;;0.80;;
70535;SDS011;58089;48.752;11.338;2022-07-11T00:59:09;4.40;;;0.80;;
70535;SDS011;58089;48.752;11.338;2022-07-11T01:01:34;3.20;;;0.70;;
70535;SDS011;58089;48.752;11.338;2022-07-11T01:04:02;5.93;;;0.90;;
70535;SDS011;58089;48.752;11.338;2022-07-11T01:06:27;4.73;;;0.90;;
70535;SDS011;58089;48.752;11.338;2022-07-11T01:08:53;4.70;;;0.90;;
70535;SDS011;58089;48.752;11.338;2022-07-11T01:11:18;4.87;;;1.00;;
70535;SDS011;58089;48.752;11.338;2022-07-11T01:13:44;4.77;;;0.97;;
70535;SDS011;58089;48.752;11.338;2022-07-11T01:16:10;3.80;;;0.80;;
70535;SDS011;58089;48.752;11.338;2022-07-11T01:18:35;5.43;;;1.25;;
70535;SDS011;58089;48.752;11.338;2022-07-11T01:21:01;4.50;;;1.07;;
70535;SDS011;58089;48.752;11.338;2022-07-11T01:23:26;4.25;;;0.90;;
70535;SDS011;58089;48.752;11.338;2022-07-11T01:25:51;3.63;;;0.70;;
70535;SDS011;58089;48.752;11.338;2022-07-11T01:28:17;3.80;;;0.90;;
70535;SDS011;58089;48.752;11.338;2022-07-11T01:30:42;5.07;;;0.87;;
70535;SDS011;58089;48.752;11.338;2022-07-11T01:33:08;3.97;;;0.90;;
70535;SDS011;58089;48.752;11.338;2022-07-11T01:35:33;4.83;;;0.80;;
70535;SDS011;58089;48.752;11.338;2022-07-11T01:37:58;3.70;;;0.77;;
70535;SDS011;58089;48.752;11.338;2022-07-11T01:40:23;4.20;;;0.85;;
70535;SDS011;58089;48.752;11.338;2022-07-11T01:42:48;3.87;;;1.00;;
70535;SDS011;58089;48.752;11.338;2022-07-11T01:45:13;4.03;;;1.00;;
70535;SDS011;58089;48.752;11.338;2022-07-11T01:47:39;4.43;;;1.10;;
70535;SDS011;58089;48.752;11.338;2022-07-11T01:50:04;5.83;;;0.90;;
70535;SDS011;58089;48.752;11.338;2022-07-11T01:52:29;4.97;;;0.90;;
70535;SDS011;58089;48.752;11.338;2022-07-11T01:54:55;3.90;;;0.90;;
70535;SDS011;58089;48.752;11.338;2022-07-11T01:57:20;4.50;;;0.97;;
70535;SDS011;58089;48.752;11.338;2022-07-11T01:59:45;6.23;;;1.00;;
70535;SDS011;58089;48.752;11.338;2022-07-11T02:02:11;5.07;;;1.38;;
70535;SDS011;58089;48.752;11.338;2022-07-11T02:04:36;6.30;;;0.90;;
70535;SDS011;58089;48.752;11.338;2022-07-11T02:07:02;4.00;;;0.80;;
70535;SDS011;58089;48.752;11.338;2022-07-11T02:09:27;5.63;;;1.10;;
70535;SDS011;58089;48.752;11.338;2022-07-11T02:11:52;6.20;;;1.10;;
70535;SDS011;58089;48.752;11.338;2022-07-11T02:14:17;3.47;;;0.90;;
70535;SDS011;58089;48.752;11.338;2022-07-11T02:16:43;5.93;;;0.90;;
70535;SDS011;58089;48.752;11.338;2022-07-11T02:19:08;5.78;;;1.20;;
70535;SDS011;58089;48.752;11.338;2022-07-11T02:21:35;5.88;;;1.20;;
70535;SDS011;58089;48.752;11.338;2022-07-11T02:24:01;5.23;;;1.20;;
70535;SDS011;58089;48.752;11.338;2022-07-11T02:26:26;4.40;;;1.00;;
70535;SDS011;58089;48.752;11.338;2022-07-11T02:28:51;3.97;;;0.67;;
70535;SDS011;58089;48.752;11.338;2022-07-11T02:31:16;4.53;;;1.30;;
70535;SDS011;58089;48.752;11.338;2022-07-11T02:33:41;3.73;;;1.07;;
70535;SDS011;58089;48.752;11.338;2022-07-11T02:36:06;5.03;;;0.80;;
70535;SDS011;58089;48.752;11.338;2022-07-11T02:38:32;4.03;;;1.00;;
70535;SDS011;58089;48.752;11.338;2022-07-11T02:40:58;7.57;;;1.10;;
70535;SDS011;58089;48.752;11.338;2022-07-11T02:43:24;4.47;;;0.75;;
70535;SDS011;58089;48.752;11.338;2022-07-11T02:45:49;5.15;;;0.90;;
70535;SDS011;58089;48.752;11.338;2022-07-11T02:48:14;4.13;;;0.80;;
70535;SDS011;58089;48.752;11.338;2022-07-11T02:50:39;5.80;;;1.00;;
70535;SDS011;58089;48.752;11.338;2022-07-11T02:53:05;5.77;;;1.20;;
70535;SDS011;58089;48.752;11.338;2022-07-11T02:55:30;3.70;;;0.87;;
70535;SDS011;58089;48.752;11.338;2022-07-11T02:57:55;6.65;;;1.08;;
70535;SDS011;58089;48.752;11.338;2022-07-11T03:00:21;5.30;;;1.00;;
70535;SDS011;58089;48.752;11.338;2022-07-11T03:02:46;6.37;;;1.27;;
70535;SDS011;58089;48.752;11.338;2022-07-11T03:05:11;4.83;;;1.00;;
70535;SDS011;58089;48.752;11.338;2022-07-11T03:07:38;4.38;;;0.90;;
70535;SDS011;58089;48.752;11.338;2022-07-11T03:10:03;4.17;;;1.03;;
70535;SDS011;58089;48.752;11.338;2022-07-11T03:12:28;5.60;;;1.00;;
70535;SDS011;58089;48.752;11.338;2022-07-11T03:14:53;3.87;;;0.97;;
70535;SDS011;58089;48.752;11.338;2022-07-11T03:17:19;3.97;;;1.00;;
70535;SDS011;58089;48.752;11.338;2022-07-11T03:19:44;4.60;;;1.13;;
70535;SDS011;58089;48.752;11.338;2022-07-11T03:22:10;5.03;;;1.23;;
70535;SDS011;58089;48.752;11.338;2022-07-11T03:24:35;3.50;;;0.90;;
70535;SDS011;58089;48.752;11.338;2022-07-11T03:27:01;4.10;;;1.15;;
70535;SDS011;58089;48.752;11.338;2022-07-11T03:29:26;4.37;;;1.03;;
70535;SDS011;58089;48.752;11.338;2022-07-11T03:31:52;4.57;;;1.00;;
70535;SDS011;58089;48.752;11.338;2022-07-11T03:34:17;8.63;;;1.37;;
70535;SDS011;58089;48.752;11.338;2022-07-11T03:36:42;4.07;;;1.10;;
70535;SDS011;58089;48.752;11.338;2022-07-11T03:39:07;7.27;;;1.23;;
70535;SDS011;58089;48.752;11.338;2022-07-11T03:41:32;4.40;;;1.20;;
70535;SDS011;58089;48.752;11.338;2022-07-11T03:43:58;6.37;;;1.30;;
70535;SDS011;58089;48.752;11.338;2022-07-11T03:46:23;4.17;;;1.33;;
70535;SDS011;58089;48.752;11.338;2022-07-11T03:48:48;6.50;;;1.37;;
70535;SDS011;58089;48.752;11.338;2022-07-11T03:51:14;3.75;;;1.00;;
70535;SDS011;58089;48.752;11.338;2022-07-11T03:53:39;5.73;;;1.20;;
70535;SDS011;58089;48.752;11.338;2022-07-11T03:56:04;4.80;;;1.13;;
70535;SDS011;58089;48.752;11.338;2022-07-11T03:58:30;4.23;;;1.17;;
70535;SDS011;58089;48.752;11.338;2022-07-11T04:00:55;7.80;;;1.43;;
70535;SDS011;58089;48.752;11.338;2022-07-11T04:03:20;5.60;;;1.33;;
70535;SDS011;58089;48.752;11.338;2022-07-11T04:05:45;5.50;;;1.17;;
70535;SDS011;58089;48.752;11.338;2022-07-11T04:08:10;4.53;;;1.27;;
70535;SDS011;58089;48.752;11.338;2022-07-11T04:10:36;5.73;;;1.30;;
70535;SDS011;58089;48.752;11.338;2022-07-11T04:13:01;5.15;;;1.58;;
70535;SDS011;58089;48.752;11.338;2022-07-11T04:15:26;5.80;;;1.50;;
70535;SDS011;58089;48.752;11.338;2022-07-11T04:17:51;4.97;;;1.43;;
70535;SDS011;58089;48.752;11.338;2022-07-11T04:20:16;5.73;;;0.90;;
70535;SDS011;58089;48.752;11.338;2022-07-11T04:22:41;6.03;;;1.30;;
70535;SDS011;58089;48.752;11.338;2022-07-11T04:25:07;5.63;;;1.50;;
70535;SDS011;58089;48.752;11.338;2022-07-11T04:27:32;6.23;;;1.10;;
70535;SDS011;58089;48.752;11.338;2022-07-11T04:29:57;7.93;;;1.53;;
70535;SDS011;58089;48.752;11.338;2022-07-11T04:32:22;5.00;;;1.10;;
70535;SDS011;58089;48.752;11.338;2022-07-11T04:34:47;5.23;;;1.40;;
70535;SDS011;58089;48.752;11.338;2022-07-11T04:37:13;4.47;;;1.23;;
70535;SDS011;58089;48.752;11.338;2022-07-11T04:39:38;6.00;;;1.23;;
70535;SDS011;58089;48.752;11.338;2022-07-11T04:42:03;6.00;;;1.30;;
70535;SDS011;58089;48.752;11.338;2022-07-11T04:44:31;5.00;;;1.08;;
70535;SDS011;58089;48.752;11.338;2022-07-11T04:46:56;7.70;;;1.57;;
70535;SDS011;58089;48.752;11.338;2022-07-11T04:49:21;5.75;;;1.20;;
70535;SDS011;58089;48.752;11.338;2022-07-11T04:51:46;5.23;;;1.50;;
70535;SDS011;58089;48.752;11.338;2022-07-11T04:54:12;6.07;;;1.60;;
70535;SDS011;58089;48.752;11.338;2022-07-11T04:56:37;7.00;;;2.30;;
70535;SDS011;58089;48.752;11.338;2022-07-11T04:59:03;6.03;;;1.90;;
70535;SDS011;58089;48.752;11.338;2022-07-11T05:01:28;5.85;;;1.70;;
70535;SDS011;58089;48.752;11.338;2022-07-11T05:03:54;9.23;;;1.53;;
70535;SDS011;58089;48.752;11.338;2022-07-11T05:06:19;6.67;;;1.20;;
70535;SDS011;58089;48.752;11.338;2022-07-11T05:08:44;5.57;;;1.75;;
70535;SDS011;58089;48.752;11.338;2022-07-11T05:11:09;7.03;;;1.63;;
70535;SDS011;58089;48.752;11.338;2022-07-11T05:13:34;5.37;;;1.50;;
70535;SDS011;58089;48.752;11.338;2022-07-11T05:16:00;7.95;;;1.55;;
70535;SDS011;58089;48.752;11.338;2022-07-11T05:18:26;6.57;;;1.60;;
70535;SDS011;58089;48.752;11.338;2022-07-11T05:20:51;8.13;;;1.50;;
70535;SDS011;58089;48.752;11.338;2022-07-11T05:23:16;5.43;;;1.70;;
70535;SDS011;58089;48.752;11.338;2022-07-11T05:25:41;4.73;;;1.20;;
70535;SDS011;58089;48.752;11.338;2022-07-11T05:28:06;5.00;;;1.57;;
70535;SDS011;58089;48.752;11.338;2022-07-11T05:30:32;7.47;;;2.03;;
70535;SDS011;58089;48.752;11.338;2022-07-11T05:32:57;7.27;;;1.70;;
70535;SDS011;58089;48.752;11.338;2022-07-11T05:35:22;5.73;;;1.30;;
70535;SDS011;58089;48.752;11.338;2022-07-11T05:37:47;9.80;;;2.40;;
70535;SDS011;58089;48.752;11.338;2022-07-11T05:40:13;7.22;;;1.75;;
70535;SDS011;58089;48.752;11.338;2022-07-11T05:42:38;5.50;;;1.87;;
70535;SDS011;58089;48.752;11.338;2022-07-11T05:45:03;4.70;;;1.40;;
70535;SDS011;58089;48.752;11.338;2022-07-11T05:47:28;9.07;;;2.58;;
70535;SDS011;58089;48.752;11.338;2022-07-11T05:49:54;6.10;;;1.90;;
70535;SDS011;58089;48.752;11.338;2022-07-11T05:52:19;8.20;;;1.87;;
70535;SDS011;58089;48.752;11.338;2022-07-11T05:54:44;6.90;;;1.50;;
70535;SDS011;58089;48.752;11.338;2022-07-11T05:57:09;5.47;;;1.20;;
70535;SDS011;58089;48.752;11.338;2022-07-11T05:59:34;8.13;;;1.13;;
70535;SDS011;58089;48.752;11.338;2022-07-11T06:02:03;9.18;;;1.77;;
70535;SDS011;58089;48.752;11.338;2022-07-11T06:04:28;6.93;;;1.73;;
70535;SDS011;58089;48.752;11.338;2022-07-11T06:06:54;6.60;;;1.40;;
70535;SDS011;58089;48.752;11.338;2022-07-11T06:09:19;6.30;;;1.37;;
70535;SDS011;58089;48.752;11.338;2022-07-11T06:11:44;9.30;;;1.50;;
70535;SDS011;58089;48.752;11.338;2022-07-11T06:14:09;6.23;;;1.30;;
70535;SDS011;58089;48.752;11.338;2022-07-11T06:16:35;8.23;;;1.80;;
70535;SDS011;58089;48.752;11.338;2022-07-11T06:19:00;6.70;;;1.45;;
70535;SDS011;58089;48.752;11.338;2022-07-11T06:21:26;8.43;;;1.57;;
70535;SDS011;58089;48.752;11.338;2022-07-11T06:23:52;5.60;;;1.40;;
70535;SDS011;58089;48.752;11.338;2022-07-11T06:26:17;6.57;;;1.63;;
70535;SDS011;58089;48.752;11.338;2022-07-11T06:28:42;7.87;;;1.40;;
70535;SDS011;58089;48.752;11.338;2022-07-11T06:31:08;6.53;;;1.53;;
70535;SDS011;58089;48.752;11.338;2022-07-11T06:33:33;6.80;;;1.60;;
70535;SDS011;58089;48.752;11.338;2022-07-11T06:35:59;4.28;;;1.15;;
70535;SDS011;58089;48.752;11.338;2022-07-11T06:38:26;5.22;;;1.40;;
70535;SDS011;58089;48.752;11.338;2022-07-11T06:40:51;5.82;;;1.10;;
70535;SDS011;58089;48.752;11.338;2022-07-11T06:43:16;5.17;;;1.20;;
70535;SDS011;58089;48.752;11.338;2022-07-11T06:45:41;4.87;;;0.90;;
70535;SDS011;58089;48.752;11.338;2022-07-11T06:48:06;6.00;;;1.10;;
70535;SDS011;58089;48.752;11.338;2022-07-11T06:50:32;6.10;;;1.27;;
70535;SDS011;58089;48.752;11.338;2022-07-11T06:52:57;4.70;;;1.50;;
70535;SDS011;58089;48.752;11.338;2022-07-11T06:55:22;4.87;;;1.20;;
70535;SDS011;58089;48.752;11.338;2022-07-11T06:57:48;4.57;;;1.20;;
70535;SDS011;58089;48.752;11.338;2022-07-11T07:00:15;5.90;;;1.35;;
70535;SDS011;58089;48.752;11.338;2022-07-11T07:02:40;4.20;;;1.00;;
70535;SDS011;58089;48.752;11.338;2022-07-11T07:05:05;5.57;;;1.30;;
70535;SDS011;58089;48.752;11.338;2022-07-11T07:07:32;4.50;;;1.20;;
70535;SDS011;58089;48.752;11.338;2022-07-11T07:09:57;3.70;;;0.90;;
70535;SDS011;58089;48.752;11.338;2022-07-11T07:12:22;4.67;;;1.20;;
70535;SDS011;58089;48.752;11.338;2022-07-11T07:14:47;3.80;;;1.20;;
70535;SDS011;58089;48.752;11.338;2022-07-11T07:17:13;4.23;;;1.40;;
70535;SDS011;58089;48.752;11.338;2022-07-11T07:19:38;3.60;;;0.93;;
70535;SDS011;58089;48.752;11.338;2022-07-11T07:22:04;4.10;;;1.20;;
70535;SDS011;58089;48.752;11.338;2022-07-11T07:24:31;4.47;;;1.30;;
70535;SDS011;58089;48.752;11.338;2022-07-11T07:26:56;3.43;;;1.07;;
70535;SDS011;58089;48.752;11.338;2022-07-11T07:29:21;3.90;;;1.20;;
70535;SDS011;58089;48.752;11.338;2022-07-11T07:31:46;9.15;;;1.67;;
70535;SDS011;58089;48.752;11.338;2022-07-11T07:34:12;4.63;;;1.10;;
70535;SDS011;58089;48.752;11.338;2022-07-11T07:36:37;4.70;;;0.90;;
70535;SDS011;58089;48.752;11.338;2022-07-11T07:39:03;3.90;;;0.93;;
70535;SDS011;58089;48.752;11.338;2022-07-11T07:41:28;5.15;;;0.75;;
70535;SDS011;58089;48.752;11.338;2022-07-11T07:43:53;3.50;;;0.90;;
70535;SDS011;58089;48.752;11.338;2022-07-11T07:46:18;3.57;;;0.70;;
70535;SDS011;58089;48.752;11.338;2022-07-11T07:48:44;4.00;;;1.10;;
70535;SDS011;58089;48.752;11.338;2022-07-11T07:51:09;5.97;;;1.30;;
70535;SDS011;58089;48.752;11.338;2022-07-11T07:53:34;4.47;;;1.20;;
70535;SDS011;58089;48.752;11.338;2022-07-11T07:56:00;4.10;;;0.90;;
70535;SDS011;58089;48.752;11.338;2022-07-11T07:58:25;3.10;;;0.60;;
70535;SDS011;58089;48.752;11.338;2022-07-11T08:00:51;4.13;;;1.27;;
70535;SDS011;58089;48.752;11.338;2022-07-11T08:03:34;4.32;;;0.82;;
70535;SDS011;58089;48.752;11.338;2022-07-11T08:06:00;3.70;;;1.00;;
70535;SDS011;58089;48.752;11.338;2022-07-11T08:08:25;3.97;;;0.90;;
70535;SDS011;58089;48.752;11.338;2022-07-11T08:10:50;5.03;;;0.70;;
70535;SDS011;58089;48.752;11.338;2022-07-11T08:13:17;4.53;;;1.05;;
70535;SDS011;58089;48.752;11.338;2022-07-11T08:15:42;4.10;;;0.90;;
70535;SDS011;58089;48.752;11.338;2022-07-11T08:18:07;3.60;;;0.70;;
70535;SDS011;58089;48.752;11.338;2022-07-11T08:20:33;3.33;;;0.70;;
70535;SDS011;58089;48.752;11.338;2022-07-11T08:23:01;3.57;;;0.50;;
70535;SDS011;58089;48.752;11.338;2022-07-11T08:25:28;3.40;;;0.52;;
70535;SDS011;58089;48.752;11.338;2022-07-11T08:27:54;4.07;;;0.83;;
70535;SDS011;58089;48.752;11.338;2022-07-11T08:30:19;3.90;;;0.70;;
70535;SDS011;58089;48.752;11.338;2022-07-11T08:32:44;4.07;;;0.60;;
70535;SDS011;58089;48.752;11.338;2022-07-11T08:35:09;3.20;;;0.50;;
70535;SDS011;58089;48.752;11.338;2022-07-11T08:37:36;3.85;;;0.50;;
70535;SDS011;58089;48.752;11.338;2022-07-11T08:40:01;3.50;;;0.50;;
70535;SDS011;58089;48.752;11.338;2022-07-11T08:42:28;4.33;;;0.50;;
70535;SDS011;58089;48.752;11.338;2022-07-11T08:44:54;3.20;;;0.60;;
70535;SDS011;58089;48.752;11.338;2022-07-11T08:47:20;2.88;;;0.50;;
70535;SDS011;58089;48.752;11.338;2022-07-11T08:49:46;3.05;;;0.50;;
70535;SDS011;58089;48.752;11.338;2022-07-11T08:52:11;3.17;;;0.50;;
70535;SDS011;58089;48.752;11.338;2022-07-11T08:54:37;3.10;;;0.50;;
70535;SDS011;58089;48.752;11.338;2022-07-11T08:57:03;4.22;;;0.60;;
70535;SDS011;58089;48.752;11.338;2022-07-11T08:59:29;3.33;;;0.63;;
70535;SDS011;58089;48.752;11.338;2022-07-11T09:01:56;4.50;;;0.73;;
70535;SDS011;58089;48.752;11.338;2022-07-11T09:04:23;4.63;;;0.68;;
70535;SDS011;58089;48.752;11.338;2022-07-11T09:06:49;3.83;;;0.60;;
70535;SDS011;58089;48.752;11.338;2022-07-11T09:09:14;3.00;;;0.67;;
70535;SDS011;58089;48.752;11.338;2022-07-11T09:11:52;4.63;;;0.87;;
70535;SDS011;58089;48.752;11.338;2022-07-11T09:14:27;4.35;;;0.77;;
70535;SDS011;58089;48.752;11.338;2022-07-11T09:17:03;3.25;;;0.65;;
70535;SDS011;58089;48.752;11.338;2022-07-11T09:19:29;3.30;;;0.80;;
70535;SDS011;58089;48.752;11.338;2022-07-11T09:22:11;3.42;;;0.70;;
70535;SDS011;58089;48.752;11.338;2022-07-11T09:30:24;3.95;;;0.73;;
70535;SDS011;58089;48.752;11.338;2022-07-11T09:33:02;4.37;;;0.67;;
70535;SDS011;58089;48.752;11.338;2022-07-11T09:37:53;4.03;;;0.70;;
70535;SDS011;58089;48.752;11.338;2022-07-11T09:40:18;3.73;;;0.80;;
70535;SDS011;58089;48.752;11.338;2022-07-11T09:42:47;4.05;;;0.85;;
70535;SDS011;58089;48.752;11.338;2022-07-11T09:45:13;5.80;;;1.15;;
70535;SDS011;58089;48.752;11.338;2022-07-11T09:48:20;4.23;;;0.80;;
70535;SDS011;58089;48.752;11.338;2022-07-11T09:50:30;3.60;;;0.70;;
70535;SDS011;58089;48.752;11.338;2022-07-11T09:53:06;3.13;;;0.50;;
70535;SDS011;58089;48.752;11.338;2022-07-11T09:55:36;6.70;;;0.80;;
70535;SDS011;58089;48.752;11.338;2022-07-11T09:58:05;3.65;;;0.70;;
70535;SDS011;58089;48.752;11.338;2022-07-11T10:00:31;3.38;;;0.50;;
70535;SDS011;58089;48.752;11.338;2022-07-11T10:02:56;3.00;;;0.40;;
70535;SDS011;58089;48.752;11.338;2022-07-11T10:05:23;3.20;;;0.55;;
70535;SDS011;58089;48.752;11.338;2022-07-11T10:07:49;3.50;;;0.70;;
70535;SDS011;58089;48.752;11.338;2022-07-11T10:10:14;3.53;;;0.50;;
70535;SDS011;58089;48.752;11.338;2022-07-11T10:12:39;5.40;;;0.50;;
70535;SDS011;58089;48.752;11.338;2022-07-11T10:15:05;2.93;;;0.50;;
70535;SDS011;58089;48.752;11.338;2022-07-11T10:23:23;3.63;;;1.03;;
70535;SDS011;58089;48.752;11.338;2022-07-11T10:30:43;3.40;;;0.60;;
70535;SDS011;58089;48.752;11.338;2022-07-11T10:33:09;3.63;;;0.60;;
70535;SDS011;58089;48.752;11.338;2022-07-11T10:35:35;4.60;;;0.70;;
70535;SDS011;58089;48.752;11.338;2022-07-11T10:38:00;3.93;;;0.70;;
70535;SDS011;58089;48.752;11.338;2022-07-11T10:43:14;10.23;;;1.48;;
70535;SDS011;58089;48.752;11.338;2022-07-11T10:45:49;4.60;;;0.80;;
70535;SDS011;58089;48.752;11.338;2022-07-11T10:48:15;3.10;;;0.50;;
70535;SDS011;58089;48.752;11.338;2022-07-11T10:50:40;2.63;;;0.47;;
70535;SDS011;58089;48.752;11.338;2022-07-11T10:53:09;4.47;;;0.55;;
70535;SDS011;58089;48.752;11.338;2022-07-11T10:55:39;2.93;;;0.40;;
70535;SDS011;58089;48.752;11.338;2022-07-11T11:00:36;4.65;;;0.60;;
70535;SDS011;58089;48.752;11.338;2022-07-11T11:03:07;3.13;;;0.40;;
70535;SDS011;58089;48.752;11.338;2022-07-11T11:05:50;3.00;;;0.50;;
70535;SDS011;58089;48.752;11.338;2022-07-11T11:10:58;3.80;;;0.50;;
70535;SDS011;58089;48.752;11.338;2022-07-11T11:13:24;3.35;;;0.50;;
70535;SDS011;58089;48.752;11.338;2022-07-11T11:20:46;4.20;;;0.70;;
70535;SDS011;58089;48.752;11.338;2022-07-11T11:23:11;3.00;;;0.50;;
70535;SDS011;58089;48.752;11.338;2022-07-11T11:25:36;3.83;;;0.40;;
70535;SDS011;58089;48.752;11.338;2022-07-11T11:28:02;3.40;;;0.50;;
70535;SDS011;58089;48.752;11.338;2022-07-11T11:30:31;3.03;;;0.47;;
70535;SDS011;58089;48.752;11.338;2022-07-11T11:32:56;3.83;;;0.60;;
70535;SDS011;58089;48.752;11.338;2022-07-11T11:35:21;3.20;;;0.50;;
70535;SDS011;58089;48.752;11.338;2022-07-11T11:37:46;3.50;;;0.50;;
70535;SDS011;58089;48.752;11.338;2022-07-11T11:40:12;3.13;;;0.50;;
70535;SDS011;58089;48.752;11.338;2022-07-11T11:42:38;3.67;;;0.60;;
70535;SDS011;58089;48.752;11.338;2022-07-11T11:45:04;3.55;;;0.60;;
70535;SDS011;58089;48.752;11.338;2022-07-11T11:47:32;2.87;;;0.50;;
70535;SDS011;58089;48.752;11.338;2022-07-11T11:49:57;4.00;;;0.60;;
70535;SDS011;58089;48.752;11.338;2022-07-11T11:52:22;3.10;;;0.60;;
70535;SDS011;58089;48.752;11.338;2022-07-11T11:54:56;2.90;;;0.50;;
70535;SDS011;58089;48.752;11.338;2022-07-11T11:57:22;2.83;;;0.45;;
70535;SDS011;58089;48.752;11.338;2022-07-11T11:59:48;3.38;;;0.40;;
70535;SDS011;58089;48.752;11.338;2022-07-11T12:02:20;2.60;;;0.40;;
70535;SDS011;58089;48.752;11.338;2022-07-11T12:04:45;3.50;;;0.90;;
70535;SDS011;58089;48.752;11.338;2022-07-11T12:07:10;3.60;;;0.83;;
70535;SDS011;58089;48.752;11.338;2022-07-11T12:09:35;3.70;;;0.93;;
70535;SDS011;58089;48.752;11.338;2022-07-11T12:12:18;4.90;;;0.80;;
70535;SDS011;58089;48.752;11.338;2022-07-11T12:15:26;3.30;;;0.60;;
70535;SDS011;58089;48.752;11.338;2022-07-11T12:17:52;2.78;;;0.45;;
70535;SDS011;58089;48.752;11.338;2022-07-11T12:20:37;3.03;;;0.50;;
70535;SDS011;58089;48.752;11.338;2022-07-11T12:23:07;4.25;;;0.90;;
70535;SDS011;58089;48.752;11.338;2022-07-11T12:25:33;3.85;;;0.73;;
70535;SDS011;58089;48.752;11.338;2022-07-11T12:27:58;3.10;;;0.70;;
70535;SDS011;58089;48.752;11.338;2022-07-11T12:30:24;3.78;;;0.80;;
70535;SDS011;58089;48.752;11.338;2022-07-11T12:33:05;3.63;;;0.77;;
70535;SDS011;58089;48.752;11.338;2022-07-11T12:35:31;3.33;;;0.80;;
70535;SDS011;58089;48.752;11.338;2022-07-11T12:37:56;4.93;;;0.90;;
70535;SDS011;58089;48.752;11.338;2022-07-11T12:40:21;3.60;;;0.80;;
70535;SDS011;58089;48.752;11.338;2022-07-11T12:42:46;3.80;;;0.70;;
70535;SDS011;58089;48.752;11.338;2022-07-11T12:45:12;6.07;;;2.10;;
70535;SDS011;58089;48.752;11.338;2022-07-11T12:47:38;3.10;;;0.67;;
70535;SDS011;58089;48.752;11.338;2022-07-11T12:52:35;3.00;;;0.70;;
70535;SDS011;58089;48.752;11.338;2022-07-11T12:55:01;3.40;;;0.90;;
70535;SDS011;58089;48.752;11.338;2022-07-11T12:57:27;3.83;;;0.90;;
70535;SDS011;58089;48.752;11.338;2022-07-11T12:59:52;3.63;;;0.77;;
70535;SDS011;58089;48.752;11.338;2022-07-11T13:02:17;4.07;;;0.80;;
70535;SDS011;58089;48.752;11.338;2022-07-11T13:04:46;4.40;;;0.80;;
70535;SDS011;58089;48.752;11.338;2022-07-11T13:10:04;3.30;;;0.80;;
70535;SDS011;58089;48.752;11.338;2022-07-11T13:12:29;3.42;;;0.82;;
70535;SDS011;58089;48.752;11.338;2022-07-11T13:15:01;4.30;;;0.80;;
70535;SDS011;58089;48.752;11.338;2022-07-11T13:17:54;4.05;;;1.05;;
70535;SDS011;58089;48.752;11.338;2022-07-11T13:20:20;3.72;;;1.15;;
70535;SDS011;58089;48.752;11.338;2022-07-11T13:22:46;3.72;;;1.20;;
70535;SDS011;58089;48.752;11.338;2022-07-11T13:25:13;3.43;;;1.13;;
70535;SDS011;58089;48.752;11.338;2022-07-11T13:27:39;3.50;;;1.00;;
70535;SDS011;58089;48.752;11.338;2022-07-11T13:30:06;4.47;;;1.00;;
70535;SDS011;58089;48.752;11.338;2022-07-11T13:32:36;3.70;;;0.90;;
70535;SDS011;58089;48.752;11.338;2022-07-11T13:35:01;5.20;;;1.20;;
70535;SDS011;58089;48.752;11.338;2022-07-11T13:37:26;6.20;;;1.50;;
70535;SDS011;58089;48.752;11.338;2022-07-11T13:39:51;6.50;;;1.20;;
70535;SDS011;58089;48.752;11.338;2022-07-11T13:42:17;3.50;;;0.83;;
70535;SDS011;58089;48.752;11.338;2022-07-11T13:44:42;3.60;;;1.10;;
70535;SDS011;58089;48.752;11.338;2022-07-11T13:47:07;4.90;;;1.00;;
70535;SDS011;58089;48.752;11.338;2022-07-11T13:49:32;4.13;;;1.03;;
70535;SDS011;58089;48.752;11.338;2022-07-11T13:51:57;3.97;;;1.10;;
70535;SDS011;58089;48.752;11.338;2022-07-11T13:54:23;3.90;;;1.20;;
70535;SDS011;58089;48.752;11.338;2022-07-11T13:56:48;3.67;;;1.33;;
70535;SDS011;58089;48.752;11.338;2022-07-11T13:59:13;3.97;;;1.40;;
70535;SDS011;58089;48.752;11.338;2022-07-11T14:01:38;3.70;;;1.30;;
70535;SDS011;58089;48.752;11.338;2022-07-11T14:04:03;3.80;;;1.40;;
70535;SDS011;58089;48.752;11.338;2022-07-11T14:06:29;3.93;;;1.30;;
70535;SDS011;58089;48.752;11.338;2022-07-11T14:08:54;4.88;;;1.65;;
70535;SDS011;58089;48.752;11.338;2022-07-11T14:11:19;4.30;;;1.70;;
70535;SDS011;58089;48.752;11.338;2022-07-11T14:13:45;4.73;;;1.33;;
70535;SDS011;58089;48.752;11.338;2022-07-11T14:16:10;4.90;;;1.57;;
70535;SDS011;58089;48.752;11.338;2022-07-11T14:18:36;5.07;;;1.50;;
70535;SDS011;58089;48.752;11.338;2022-07-11T14:21:02;4.87;;;1.60;;
70535;SDS011;58089;48.752;11.338;2022-07-11T14:23:27;5.83;;;1.33;;
70535;SDS011;58089;48.752;11.338;2022-07-11T14:25:52;3.90;;;1.47;;
70535;SDS011;58089;48.752;11.338;2022-07-11T14:28:18;4.87;;;1.77;;
70535;SDS011;58089;48.752;11.338;2022-07-11T14:30:43;4.90;;;1.47;;
70535;SDS011;58089;48.752;11.338;2022-07-11T14:33:09;4.00;;;1.50;;
70535;SDS011;58089;48.752;11.338;2022-07-11T14:35:34;5.20;;;1.63;;
70535;SDS011;58089;48.752;11.338;2022-07-11T14:37:59;6.30;;;1.83;;
70535;SDS011;58089;48.752;11.338;2022-07-11T14:40:25;3.70;;;1.40;;
70535;SDS011;58089;48.752;11.338;2022-07-11T14:42:50;4.20;;;1.70;;
70535;SDS011;58089;48.752;11.338;2022-07-11T14:45:16;5.30;;;1.73;;
70535;SDS011;58089;48.752;11.338;2022-07-11T14:47:41;3.95;;;1.40;;
70535;SDS011;58089;48.752;11.338;2022-07-11T14:50:07;3.77;;;1.50;;
70535;SDS011;58089;48.752;11.338;2022-07-11T14:52:33;4.32;;;1.70;;
70535;SDS011;58089;48.752;11.338;2022-07-11T14:54:58;6.90;;;1.65;;
70535;SDS011;58089;48.752;11.338;2022-07-11T14:57:23;5.63;;;1.70;;
70535;SDS011;58089;48.752;11.338;2022-07-11T14:59:48;4.10;;;1.70;;
70535;SDS011;58089;48.752;11.338;2022-07-11T15:02:14;4.13;;;1.60;;
70535;SDS011;58089;48.752;11.338;2022-07-11T15:04:39;4.10;;;1.60;;